Time;durP1;ratioP1;P1;durP2;ratioP2;P2;SDS_P1;SDS_P2;PMS_P1;PMS_P2;Temp;Humidity;BMP_temperature;BMP_pressure;BME280_temperature;BME280_humidity;BME280_pressure;Samples;Min_cycle;Max_cycle;Signal;HPM_P1;HPM_P2
2021/06/19 00:01:26;;;;;;;2.92;2.55;;;15.20;99.90;;;;;;5039352;28;20386;-61
2021/06/19 00:03:52;;;;;;;3.58;2.20;;;15.00;99.90;;;;;;5039527;28;20028;-61
2021/06/19 00:06:18;;;;;;;4.55;3.03;;;15.00;99.90;;;;;;5039248;28;20033;-61
2021/06/19 00:08:43;;;;;;;2.92;2.30;;;15.10;99.90;;;;;;5039642;28;20429;-61
2021/06/19 00:11:09;;;;;;;3.55;3.00;;;15.10;99.90;;;;;;5039267;28;20074;-61
2021/06/19 00:13:35;;;;;;;3.55;3.25;;;15.00;99.90;;;;;;5039394;28;20053;-61
2021/06/19 00:16:01;;;;;;;8.95;4.18;;;15.00;99.90;;;;;;5039072;28;20402;-61
2021/06/19 00:18:27;;;;;;;4.85;3.85;;;14.80;99.90;;;;;;5039369;28;20578;-61
2021/06/19 00:20:53;;;;;;;5.57;3.55;;;14.90;99.90;;;;;;5038842;28;20072;-61
2021/06/19 00:23:18;;;;;;;8.77;3.88;;;14.90;99.90;;;;;;5039271;28;20025;-61
2021/06/19 00:25:44;;;;;;;5.18;3.90;;;14.80;99.90;;;;;;5039139;28;20032;-61
2021/06/19 00:28:10;;;;;;;5.63;3.58;;;14.70;99.90;;;;;;5039207;28;20029;-61
2021/06/19 00:30:36;;;;;;;4.45;3.20;;;14.80;99.90;;;;;;5039112;28;20069;-61
2021/06/19 00:33:02;;;;;;;4.05;3.13;;;14.70;99.90;;;;;;5039239;28;20029;-61
2021/06/19 00:35:28;;;;;;;4.38;3.45;;;14.60;99.90;;;;;;5038997;28;20056;-61
2021/06/19 00:37:54;;;;;;;4.03;3.17;;;14.70;99.90;;;;;;5038862;28;20056;-61
2021/06/19 00:40:20;;;;;;;5.45;3.47;;;14.50;99.90;;;;;;5038908;28;20397;-61
2021/06/19 00:42:55;;;;;;;3.33;3.03;;;14.60;99.90;;;;;;5038958;28;20160;-62
2021/06/19 00:45:22;;;;;;;5.78;4.07;;;14.40;99.90;;;;;;5038821;28;20135;-61
2021/06/19 00:47:48;;;;;;;4.10;3.10;;;14.50;99.90;;;;;;5038892;28;20025;-61
2021/06/19 00:50:16;;;;;;;4.45;2.95;;;14.50;99.90;;;;;;5038782;28;20025;-61
2021/06/19 00:52:43;;;;;;;4.28;2.50;;;14.50;99.90;;;;;;5038432;28;20032;-61
2021/06/19 00:55:09;;;;;;;4.30;2.55;;;14.40;99.90;;;;;;5038541;28;20039;-61
2021/06/19 00:57:36;;;;;;;3.47;2.63;;;14.40;99.90;;;;;;5038458;28;20518;-61
2021/06/19 01:00:04;;;;;;;4.90;2.90;;;14.50;99.90;;;;;;5038676;28;20022;-61
2021/06/19 01:02:30;;;;;;;4.82;3.30;;;14.60;99.90;;;;;;5038421;28;20018;-61
2021/06/19 01:04:56;;;;;;;4.88;3.20;;;14.60;99.90;;;;;;5038408;28;20040;-61
2021/06/19 01:07:23;;;;;;;8.23;3.40;;;14.60;99.90;;;;;;5037940;28;20482;-61
2021/06/19 01:09:49;;;;;;;6.63;3.63;;;14.40;99.90;;;;;;5037561;28;20022;-61
2021/06/19 01:12:23;;;;;;;6.03;3.90;;;14.60;99.90;;;;;;5038117;28;20028;-61
2021/06/19 01:14:50;;;;;;;6.57;4.07;;;14.40;99.90;;;;;;5037988;28;20109;-61
2021/06/19 01:17:16;;;;;;;10.40;4.53;;;14.30;99.90;;;;;;5038186;28;20022;-61
2021/06/19 01:19:42;;;;;;;4.38;3.38;;;14.30;99.90;;;;;;5038180;28;20036;-61
2021/06/19 01:22:08;;;;;;;7.82;4.75;;;14.30;99.90;;;;;;5037786;28;20026;-62
2021/06/19 01:24:34;;;;;;;4.93;3.20;;;14.30;99.90;;;;;;5038241;28;20032;-61
2021/06/19 01:26:59;;;;;;;8.93;3.63;;;14.30;99.90;;;;;;5036558;28;20026;-61
2021/06/19 01:29:25;;;;;;;3.78;3.05;;;14.20;99.90;;;;;;5037839;28;20076;-61
2021/06/19 01:31:52;;;;;;;3.47;3.15;;;14.20;99.90;;;;;;5037826;28;20032;-61
2021/06/19 01:34:17;;;;;;;5.90;4.65;;;14.20;99.90;;;;;;5037917;28;20025;-61
2021/06/19 01:36:43;;;;;;;6.28;4.55;;;14.20;99.90;;;;;;5037829;28;20021;-61
2021/06/19 01:39:09;;;;;;;6.65;4.40;;;14.20;99.90;;;;;;5037863;28;20026;-61
2021/06/19 01:41:36;;;;;;;8.02;4.60;;;14.40;99.90;;;;;;5037725;28;20505;-61
2021/06/19 01:44:09;;;;;;;5.18;4.07;;;14.30;99.90;;;;;;5037793;28;20096;-61
2021/06/19 01:46:39;;;;;;;4.22;3.80;;;14.10;99.90;;;;;;5037778;28;20029;-61
2021/06/19 01:49:05;;;;;;;5.68;4.18;;;14.20;99.90;;;;;;5037792;28;20060;-61
2021/06/19 01:51:30;;;;;;;6.07;5.00;;;14.20;99.90;;;;;;5037188;28;20397;-61
2021/06/19 01:53:57;;;;;;;4.35;3.95;;;14.10;99.90;;;;;;5037533;28;20096;-61
2021/06/19 01:56:24;;;;;;;14.18;5.47;;;14.20;99.90;;;;;;5037220;28;20025;-61
2021/06/19 01:58:51;;;;;;;7.25;4.40;;;14.20;99.90;;;;;;5037316;28;20018;-61
2021/06/19 02:01:17;;;;;;;6.05;4.78;;;14.30;99.90;;;;;;5037192;28;20076;-61
2021/06/19 02:03:44;;;;;;;5.45;4.75;;;14.20;99.90;;;;;;5037223;28;20072;-61
2021/06/19 02:06:10;;;;;;;8.48;4.70;;;14.00;99.90;;;;;;5037102;28;20057;-61
2021/06/19 02:08:37;;;;;;;6.82;5.82;;;14.20;99.90;;;;;;5037382;28;20025;-61
2021/06/19 02:11:04;;;;;;;6.43;5.05;;;14.10;99.90;;;;;;5037424;28;20044;-61
2021/06/19 02:13:31;;;;;;;6.15;5.28;;;14.10;99.90;;;;;;5037180;28;20474;-61
2021/06/19 02:15:57;;;;;;;5.10;4.60;;;14.20;99.90;;;;;;5036804;28;20083;-62
2021/06/19 02:18:25;;;;;;;4.35;3.95;;;14.20;99.90;;;;;;5037201;28;20068;-61
2021/06/19 02:20:54;;;;;;;4.05;3.58;;;14.20;99.90;;;;;;5036608;28;20381;-61
2021/06/19 02:23:21;;;;;;;6.03;4.30;;;14.00;99.90;;;;;;5036375;28;20053;-61
2021/06/19 02:25:51;;;;;;;10.57;5.47;;;14.00;99.90;;;;;;5036891;28;20040;-61
2021/06/19 02:28:19;;;;;;;6.60;5.15;;;14.10;99.90;;;;;;5037045;28;20025;-61
2021/06/19 02:30:47;;;;;;;8.95;5.57;;;14.00;99.90;;;;;;5034170;28;20056;-61
2021/06/19 02:33:14;;;;;;;7.18;5.25;;;14.10;99.90;;;;;;5036872;28;20033;-61
2021/06/19 02:35:44;;;;;;;5.47;4.95;;;14.10;99.90;;;;;;5036940;28;20033;-61
2021/06/19 02:38:12;;;;;;;6.05;5.40;;;14.10;99.90;;;;;;5036593;28;20022;-61
2021/06/19 02:40:42;;;;;;;4.82;4.35;;;14.00;99.90;;;;;;5036978;28;20029;-61
2021/06/19 02:43:09;;;;;;;4.40;4.05;;;14.10;99.90;;;;;;5036659;28;20030;-62
2021/06/19 02:45:35;;;;;;;5.85;4.13;;;14.20;99.90;;;;;;5036739;28;20029;-61
2021/06/19 02:48:02;;;;;;;4.32;3.45;;;14.20;99.90;;;;;;5037108;28;20029;-61
2021/06/19 02:50:31;;;;;;;5.45;4.57;;;14.10;99.90;;;;;;5036733;28;20036;-61
2021/06/19 02:52:58;;;;;;;8.13;5.32;;;14.20;99.90;;;;;;5036236;28;20082;-61
2021/06/19 02:55:27;;;;;;;6.97;5.20;;;14.10;99.90;;;;;;5036307;28;20059;-61
2021/06/19 02:57:54;;;;;;;5.65;3.97;;;13.90;99.90;;;;;;5036220;28;20033;-61
2021/06/19 03:00:22;;;;;;;5.95;4.20;;;13.90;99.90;;;;;;5036771;28;20033;-61
2021/06/19 03:02:48;;;;;;;6.22;4.93;;;13.80;99.90;;;;;;5036414;28;20394;-61
2021/06/19 03:05:23;;;;;;;6.18;3.20;;;13.80;99.90;;;;;;5036619;28;20037;-61
2021/06/19 03:07:49;;;;;;;7.90;7.10;;;14.00;99.90;;;;;;5036309;28;20033;-61
2021/06/19 03:10:17;;;;;;;8.10;5.78;;;13.90;99.90;;;;;;5036626;28;20535;-61
2021/06/19 03:12:43;;;;;;;7.78;5.60;;;14.00;99.90;;;;;;5036199;28;20079;-61
2021/06/19 03:15:10;;;;;;;6.95;5.93;;;13.80;99.90;;;;;;5036405;28;20029;-61
2021/06/19 03:17:37;;;;;;;5.53;4.68;;;13.70;99.90;;;;;;5036257;28;20486;-61
2021/06/19 03:20:08;;;;;;;6.78;5.20;;;13.90;99.90;;;;;;5036371;28;20029;-61
2021/06/19 03:22:48;;;;;;;6.20;5.43;;;13.80;99.90;;;;;;5036264;28;20026;-61
2021/06/19 03:25:22;;;;;;;6.80;6.15;;;13.80;99.90;;;;;;5036299;28;20028;-61
2021/06/19 03:27:48;;;;;;;8.98;6.22;;;14.10;99.90;;;;;;5036303;28;20069;-61
2021/06/19 03:30:17;;;;;;;6.05;5.30;;;13.90;99.90;;;;;;5036018;28;20057;-61
2021/06/19 03:32:43;;;;;;;7.97;5.85;;;13.70;99.90;;;;;;5036230;28;20036;-61
2021/06/19 03:35:10;;;;;;;6.90;5.53;;;13.70;99.90;;;;;;5040377;28;20029;-61
2021/06/19 03:37:36;;;;;;;5.88;5.28;;;13.70;99.90;;;;;;5039860;28;20034;-61
2021/06/19 03:40:05;;;;;;;6.53;5.90;;;13.80;99.90;;;;;;5040144;28;20116;-61
2021/06/19 03:42:31;;;;;;;10.05;6.32;;;13.80;99.90;;;;;;5040018;28;20025;-61
2021/06/19 03:44:57;;;;;;;6.72;5.95;;;13.70;99.90;;;;;;5039955;28;20083;-61
2021/06/19 03:47:23;;;;;;;8.43;6.20;;;13.90;99.90;;;;;;5039872;28;20026;-61
2021/06/19 03:49:49;;;;;;;8.30;6.15;;;13.90;99.90;;;;;;5039727;28;20025;-61
2021/06/19 03:52:15;;;;;;;6.20;4.78;;;13.80;99.90;;;;;;5039726;28;20075;-61
2021/06/19 03:54:41;;;;;;;10.57;7.05;;;13.80;99.90;;;;;;5039862;28;20056;-62
2021/06/19 03:57:07;;;;;;;8.95;6.28;;;14.00;99.90;;;;;;5039450;28;20030;-61
2021/06/19 03:59:36;;;;;;;10.15;6.97;;;14.10;99.90;;;;;;5039755;28;20024;-61
2021/06/19 04:02:03;;;;;;;7.80;5.30;;;14.00;99.90;;;;;;5039976;28;20026;-61
2021/06/19 04:04:28;;;;;;;8.48;5.55;;;13.80;99.90;;;;;;5039685;28;20036;-61
2021/06/19 04:06:54;;;;;;;8.05;6.63;;;14.20;99.90;;;;;;5039238;28;20030;-61
2021/06/19 04:09:20;;;;;;;11.27;6.63;;;14.10;99.90;;;;;;5039316;28;20036;-62
2021/06/19 04:11:46;;;;;;;8.52;6.20;;;14.00;99.90;;;;;;5039298;28;20033;-61
2021/06/19 04:14:12;;;;;;;9.27;6.28;;;14.10;99.90;;;;;;5039319;28;20025;-61
2021/06/19 04:16:38;;;;;;;8.55;6.55;;;14.20;99.90;;;;;;5039265;28;20456;-62
2021/06/19 04:19:03;;;;;;;9.40;7.13;;;14.10;99.90;;;;;;5039424;28;20029;-61
2021/06/19 04:21:30;;;;;;;9.35;6.90;;;14.30;99.90;;;;;;5038937;28;20024;-61
2021/06/19 04:23:56;;;;;;;8.43;6.85;;;14.40;99.90;;;;;;5039158;28;20029;-61
2021/06/19 04:26:22;;;;;;;7.25;4.90;;;14.30;99.90;;;;;;5039332;28;20044;-61
2021/06/19 04:28:48;;;;;;;7.35;5.65;;;14.30;99.90;;;;;;5038769;28;20370;-62
2021/06/19 04:31:14;;;;;;;7.18;4.68;;;14.20;99.90;;;;;;5038911;28;20060;-62
2021/06/19 04:33:39;;;;;;;4.72;4.22;;;14.20;99.90;;;;;;5038812;28;20029;-62
2021/06/19 04:36:08;;;;;;;9.20;6.57;;;14.50;99.90;;;;;;5039225;28;20024;-61
2021/06/19 04:38:33;;;;;;;7.05;5.35;;;14.50;99.90;;;;;;5039054;28;20081;-61
2021/06/19 04:41:06;;;;;;;8.82;6.47;;;14.50;99.90;;;;;;5038907;28;20512;-61
2021/06/19 04:46:27;;;;;;;7.18;5.88;;;14.40;99.90;;;;;;5001062;28;20057;-61
2021/06/19 04:48:53;;;;;;;6.35;5.40;;;14.40;99.90;;;;;;5038937;28;20579;-61
2021/06/19 04:51:19;;;;;;;14.70;6.45;;;14.30;99.90;;;;;;5038375;28;20100;-61
2021/06/19 04:53:45;;;;;;;9.25;6.80;;;14.20;99.90;;;;;;5038663;28;20394;-61
2021/06/19 04:56:11;;;;;;;7.70;6.82;;;14.30;99.90;;;;;;5038402;28;20022;-61
2021/06/19 04:58:37;;;;;;;8.77;5.78;;;14.30;99.90;;;;;;5038549;28;20025;-61
2021/06/19 05:01:03;;;;;;;9.43;6.10;;;14.40;99.90;;;;;;5038635;28;20430;-61
2021/06/19 05:03:29;;;;;;;7.50;5.95;;;14.30;99.90;;;;;;5038574;28;20017;-61
2021/06/19 05:05:55;;;;;;;9.52;5.75;;;14.40;99.90;;;;;;5037989;28;20477;-61
2021/06/19 05:08:21;;;;;;;7.78;6.60;;;14.60;99.90;;;;;;5034616;28;20048;-61
2021/06/19 05:10:48;;;;;;;9.68;5.75;;;14.40;99.90;;;;;;5036717;28;20030;-62
2021/06/19 05:13:14;;;;;;;5.60;5.00;;;14.50;99.90;;;;;;5038037;28;20052;-61
2021/06/19 05:15:40;;;;;;;12.05;5.65;;;14.40;99.90;;;;;;5035845;28;20410;-61
2021/06/19 05:18:05;;;;;;;7.82;5.50;;;14.60;99.90;;;;;;5038152;28;20151;-62
2021/06/19 05:20:32;;;;;;;8.65;6.25;;;14.50;99.90;;;;;;5038026;28;20147;-61
2021/06/19 05:22:59;;;;;;;11.02;6.00;;;14.60;99.90;;;;;;5037687;28;20057;-61
2021/06/19 05:25:26;;;;;;;6.90;6.20;;;14.60;99.90;;;;;;5037660;28;20029;-61
2021/06/19 05:27:52;;;;;;;6.95;5.60;;;14.70;99.90;;;;;;5037991;28;20022;-61
2021/06/19 05:30:18;;;;;;;8.95;6.95;;;14.60;99.90;;;;;;5036434;28;20053;-61
2021/06/19 05:32:44;;;;;;;9.77;7.32;;;14.60;99.90;;;;;;5037862;28;20104;-61
2021/06/19 05:35:11;;;;;;;18.13;6.13;;;14.70;99.90;;;;;;5038090;28;22621;-61
2021/06/19 05:37:38;;;;;;;7.93;6.28;;;14.70;99.90;;;;;;5037578;28;20028;-62
2021/06/19 05:40:06;;;;;;;9.43;6.70;;;14.70;99.90;;;;;;5037855;28;20026;-61
2021/06/19 05:42:32;;;;;;;9.07;6.30;;;14.90;99.90;;;;;;5037763;28;20032;-61
2021/06/19 05:44:58;;;;;;;13.80;6.28;;;14.80;99.90;;;;;;5037659;28;20026;-61
2021/06/19 05:47:24;;;;;;;7.72;6.30;;;15.00;99.90;;;;;;5037668;28;20028;-61
2021/06/19 05:49:50;;;;;;;9.88;6.03;;;15.00;99.90;;;;;;5037647;28;20029;-61
2021/06/19 05:52:15;;;;;;;10.82;5.30;;;14.80;99.90;;;;;;5037294;28;20113;-61
2021/06/19 05:54:41;;;;;;;10.05;6.50;;;15.10;99.90;;;;;;5037497;28;20045;-62
2021/06/19 05:57:08;;;;;;;7.93;6.03;;;15.00;99.90;;;;;;5036901;28;20032;-61
2021/06/19 05:59:37;;;;;;;8.63;5.90;;;15.10;99.90;;;;;;5037485;28;20044;-61
2021/06/19 06:02:04;;;;;;;13.90;6.85;;;15.10;99.90;;;;;;5037778;28;20021;-61
2021/06/19 06:04:31;;;;;;;7.93;6.10;;;15.20;99.90;;;;;;5037395;28;20024;-61
2021/06/19 06:06:57;;;;;;;12.30;6.40;;;15.10;99.90;;;;;;5035728;28;20248;-61
2021/06/19 06:09:23;;;;;;;11.75;7.25;;;15.20;99.90;;;;;;5037337;28;20033;-61
2021/06/19 06:11:49;;;;;;;9.15;7.13;;;15.20;99.90;;;;;;5037145;28;20022;-61
2021/06/19 06:14:14;;;;;;;8.50;6.80;;;15.10;99.90;;;;;;5037092;28;20030;-61
2021/06/19 06:16:40;;;;;;;9.85;6.03;;;15.10;99.90;;;;;;5037169;28;20030;-62
2021/06/19 06:19:07;;;;;;;11.30;6.10;;;15.10;99.90;;;;;;5037035;28;20512;-61
2021/06/19 06:21:33;;;;;;;7.43;5.60;;;15.30;99.90;;;;;;5037062;28;20104;-62
2021/06/19 06:23:59;;;;;;;11.45;7.38;;;15.30;99.90;;;;;;5036836;28;20112;-61
2021/06/19 06:26:25;;;;;;;7.57;5.47;;;15.40;99.90;;;;;;5036948;28;20057;-61
2021/06/19 06:28:50;;;;;;;15.27;6.07;;;15.50;99.90;;;;;;5036670;28;20030;-61
2021/06/19 06:31:16;;;;;;;8.65;5.72;;;15.80;99.90;;;;;;5036935;28;20039;-61
2021/06/19 06:33:43;;;;;;;10.10;6.75;;;15.70;99.90;;;;;;5036732;28;20026;-61
2021/06/19 06:36:09;;;;;;;7.55;5.32;;;16.00;99.90;;;;;;5037060;28;20108;-62
2021/06/19 06:38:35;;;;;;;9.48;5.80;;;16.10;99.90;;;;;;5036855;28;20049;-61
2021/06/19 06:41:00;;;;;;;14.68;6.57;;;16.50;99.90;;;;;;5036773;28;20022;-61
2021/06/19 06:43:26;;;;;;;7.95;5.70;;;16.50;99.90;;;;;;5036540;28;20540;-61
2021/06/19 06:45:52;;;;;;;6.45;5.03;;;16.50;99.90;;;;;;5036868;28;20025;-61
2021/06/19 06:48:18;;;;;;;8.35;5.93;;;16.50;99.90;;;;;;5036497;28;20045;-61
2021/06/19 06:50:44;;;;;;;5.95;4.70;;;16.60;99.90;;;;;;5036495;28;20068;-61
2021/06/19 06:53:10;;;;;;;5.65;4.97;;;16.90;99.90;;;;;;5036601;28;20501;-62
2021/06/19 06:55:36;;;;;;;7.20;5.05;;;17.10;99.90;;;;;;5036622;28;20029;-62
2021/06/19 06:58:02;;;;;;;6.68;5.38;;;17.40;99.90;;;;;;5036338;28;20026;-61
2021/06/19 07:00:28;;;;;;;9.85;5.60;;;17.40;99.90;;;;;;5036540;28;20026;-61
2021/06/19 07:02:54;;;;;;;6.70;5.47;;;17.60;99.90;;;;;;5036404;28;20057;-61
2021/06/19 07:05:20;;;;;;;5.97;4.55;;;17.60;99.90;;;;;;5036377;28;20024;-61
2021/06/19 07:07:46;;;;;;;7.97;6.05;;;17.50;99.90;;;;;;5036608;28;20115;-61
2021/06/19 07:10:14;;;;;;;6.53;5.03;;;17.30;99.90;;;;;;5040629;28;20022;-61
2021/06/19 07:12:44;;;;;;;6.00;5.25;;;17.40;99.90;;;;;;5040334;28;20028;-61
2021/06/19 07:15:13;;;;;;;8.27;4.53;;;17.30;99.90;;;;;;5040600;28;20036;-61
2021/06/19 07:17:39;;;;;;;4.55;4.05;;;17.30;99.90;;;;;;5040220;28;20444;-62
2021/06/19 07:20:07;;;;;;;5.15;4.13;;;17.40;99.90;;;;;;5040592;28;20013;-62
2021/06/19 07:22:34;;;;;;;7.28;4.35;;;17.40;99.90;;;;;;5040088;28;20032;-62
2021/06/19 07:25:01;;;;;;;5.63;4.35;;;17.60;99.90;;;;;;5040482;28;20105;-61
2021/06/19 07:27:28;;;;;;;5.93;3.22;;;17.60;99.90;;;;;;5020472;28;20036;-61
2021/06/19 07:29:54;;;;;;;5.20;4.05;;;17.70;99.90;;;;;;5030650;28;20029;-61
2021/06/19 07:32:20;;;;;;;4.57;4.07;;;18.00;99.90;;;;;;5040167;28;20041;-61
2021/06/19 07:34:46;;;;;;;4.93;3.72;;;;;;;;;;5040108;28;20029;-62
2021/06/19 07:37:12;;;;;;;3.85;3.25;;;18.60;99.90;;;;;;5039601;28;20033;-62
2021/06/19 07:39:38;;;;;;;4.45;3.45;;;18.80;99.90;;;;;;5040241;28;20023;-62
2021/06/19 07:42:04;;;;;;;11.30;4.13;;;19.00;99.90;;;;;;5040250;28;20105;-62
2021/06/19 07:44:31;;;;;;;5.63;3.50;;;19.30;99.90;;;;;;5039847;28;20024;-62
2021/06/19 07:46:58;;;;;;;3.92;2.90;;;19.60;99.90;;;;;;5038981;28;20295;-62
2021/06/19 07:49:26;;;;;;;5.43;3.38;;;20.10;99.90;;;;;;5039860;28;20021;-62
2021/06/19 07:51:52;;;;;;;3.35;3.08;;;20.30;99.90;;;;;;5039712;28;20022;-62
2021/06/19 07:54:18;;;;;;;4.72;3.65;;;20.50;99.90;;;;;;5039835;28;20076;-62
2021/06/19 07:56:47;;;;;;;3.80;3.30;;;20.50;99.90;;;;;;5039498;28;20057;-62
2021/06/19 07:59:13;;;;;;;4.10;3.47;;;20.40;99.90;;;;;;5039851;28;20025;-61
2021/06/19 08:01:39;;;;;;;3.70;2.70;;;20.30;99.90;;;;;;5039792;28;20025;-61
2021/06/19 08:04:05;;;;;;;4.72;3.03;;;20.10;99.90;;;;;;5040018;28;20026;-62
2021/06/19 08:06:31;;;;;;;3.80;3.03;;;20.20;99.90;;;;;;5039384;28;20036;-62
2021/06/19 08:08:57;;;;;;;3.55;3.15;;;20.20;99.90;;;;;;5039592;28;20128;-62
2021/06/19 08:11:23;;;;;;;3.08;2.78;;;20.40;99.90;;;;;;5039606;28;20039;-62
2021/06/19 08:13:49;;;;;;;2.80;2.28;;;20.40;99.90;;;;;;5039382;28;20030;-62
2021/06/19 08:16:18;;;;;;;4.65;3.05;;;20.50;99.90;;;;;;5039297;28;20497;-62
2021/06/19 08:18:45;;;;;;;3.65;2.97;;;20.60;99.90;;;;;;5039479;28;20025;-62
2021/06/19 08:21:11;;;;;;;2.90;2.70;;;20.40;99.90;;;;;;5038892;28;20017;-61
2021/06/19 08:23:37;;;;;;;6.72;2.65;;;20.20;99.90;;;;;;5039358;28;20013;-61
2021/06/19 08:26:03;;;;;;;4.55;2.90;;;20.10;99.90;;;;;;5039355;28;20032;-62
2021/06/19 08:28:33;;;;;;;3.45;2.72;;;20.30;99.90;;;;;;5039129;28;20025;-62
2021/06/19 08:30:59;;;;;;;3.55;2.20;;;21.00;99.90;;;;;;5038764;28;20076;-62
2021/06/19 08:33:24;;;;;;;2.70;2.15;;;21.60;99.90;;;;;;5039051;28;20038;-62
2021/06/19 08:35:50;;;;;;;3.17;1.63;;;22.10;99.90;;;;;;5039084;28;20083;-62
2021/06/19 08:38:16;;;;;;;3.55;2.50;;;22.20;99.90;;;;;;5038978;28;20076;-62
2021/06/19 08:40:42;;;;;;;1.90;1.80;;;22.10;99.90;;;;;;5038952;28;20023;-62
2021/06/19 08:43:08;;;;;;;2.25;2.05;;;21.90;99.90;;;;;;5038813;28;20104;-62
2021/06/19 08:45:34;;;;;;;2.17;1.98;;;21.60;99.90;;;;;;5038986;28;20021;-62
2021/06/19 08:48:02;;;;;;;2.60;2.08;;;21.40;99.90;;;;;;5038585;28;20051;-62
2021/06/19 08:50:29;;;;;;;2.75;2.55;;;21.30;99.90;;;;;;5038505;28;20041;-62
2021/06/19 08:52:55;;;;;;;3.28;2.80;;;21.20;99.90;;;;;;5038408;28;20033;-62
2021/06/19 08:55:20;;;;;;;4.18;3.25;;;21.00;99.90;;;;;;5038715;28;20473;-62
2021/06/19 08:57:47;;;;;;;2.47;2.28;;;20.80;99.90;;;;;;5038612;28;20137;-62
2021/06/19 09:00:15;;;;;;;4.32;2.88;;;20.60;99.90;;;;;;5038621;28;20108;-62
2021/06/19 09:02:41;;;;;;;3.92;3.40;;;20.30;99.90;;;;;;5038725;28;20053;-62
2021/06/19 09:05:10;;;;;;;4.30;3.65;;;20.10;99.90;;;;;;5038772;28;20025;-61
2021/06/19 09:07:50;;;;;;;5.38;3.92;;;19.80;99.90;;;;;;5038470;28;20075;-61
2021/06/19 09:10:16;;;;;;;3.05;2.75;;;19.40;99.90;;;;;;5038454;28;20026;-62
2021/06/19 09:12:58;;;;;;;4.00;2.85;;;19.30;99.90;;;;;;5038161;28;20088;-61
2021/06/19 09:15:26;;;;;;;5.25;4.30;;;19.20;99.90;;;;;;5037773;28;20025;-61
2021/06/19 09:18:05;;;;;;;8.63;4.85;;;19.20;99.90;;;;;;5038148;28;20033;-62
2021/06/19 09:20:50;;;;;;;5.70;4.10;;;19.10;99.90;;;;;;5037854;28;20039;-62
2021/06/19 09:23:25;;;;;;;4.00;3.70;;;18.80;99.90;;;;;;5038063;28;20029;-62
2021/06/19 09:26:05;;;;;;;4.78;4.25;;;18.70;99.90;;;;;;5018278;28;20040;-61
2021/06/19 09:28:31;;;;;;;5.03;3.65;;;18.60;99.90;;;;;;5018008;28;20520;-62
2021/06/19 09:30:57;;;;;;;3.70;3.17;;;18.60;99.90;;;;;;5036386;28;20221;-61
2021/06/19 09:33:23;;;;;;;4.75;4.10;;;18.50;99.90;;;;;;5037788;28;20026;-61
2021/06/19 09:35:49;;;;;;;5.57;4.10;;;18.60;99.90;;;;;;5037955;28;20021;-62
2021/06/19 09:38:16;;;;;;;4.47;4.07;;;18.60;99.90;;;;;;5037865;28;20021;-61
2021/06/19 09:40:46;;;;;;;5.40;3.72;;;18.60;99.90;;;;;;5037881;28;20478;-61
2021/06/19 09:43:25;;;;;;;2.97;2.75;;;18.60;99.90;;;;;;5037796;28;20040;-61
2021/06/19 09:46:04;;;;;;;3.25;3.00;;;18.70;99.90;;;;;;5037771;28;20036;-62
2021/06/19 09:48:32;;;;;;;4.10;3.67;;;18.90;99.90;;;;;;5037504;28;20025;-62
2021/06/19 09:51:18;;;;;;;3.05;2.75;;;19.00;99.90;;;;;;5037435;28;20401;-61
2021/06/19 09:54:14;;;;;;;5.28;4.68;;;19.20;99.90;;;;;;5037779;28;20032;-61
2021/06/19 09:57:11;;;;;;;5.07;4.43;;;19.40;99.90;;;;;;5024456;28;20417;-64
2021/06/19 09:59:39;;;;;;;5.53;4.95;;;19.50;99.90;;;;;;5025408;28;20038;-62
2021/06/19 10:02:23;;;;;;;3.60;3.30;;;19.60;99.90;;;;;;5037704;28;20022;-61
2021/06/19 10:04:54;;;;;;;4.25;3.70;;;19.60;99.90;;;;;;5017641;28;20029;-62
2021/06/19 10:07:21;;;;;;;6.65;4.18;;;19.60;99.90;;;;;;5017298;28;20026;-61
2021/06/19 10:09:52;;;;;;;6.05;4.85;;;19.60;99.90;;;;;;5017649;28;20064;-61
2021/06/19 10:12:23;;;;;;;4.90;3.95;;;19.60;99.90;;;;;;5017586;28;20038;-61
2021/06/19 10:15:05;;;;;;;6.07;3.85;;;19.70;99.90;;;;;;5026802;28;20029;-61
2021/06/19 10:17:36;;;;;;;5.80;3.83;;;19.80;99.90;;;;;;5037554;28;20108;-62
2021/06/19 10:20:04;;;;;;;5.63;4.88;;;19.70;99.90;;;;;;5037231;28;20026;-61
2021/06/19 10:22:32;;;;;;;8.27;4.05;;;19.60;99.90;;;;;;5036901;28;20033;-62
2021/06/19 10:25:11;;;;;;;5.28;3.72;;;19.60;99.90;;;;;;5037253;28;20154;-62
2021/06/19 10:27:45;;;;;;;4.90;3.42;;;19.50;99.90;;;;;;5017600;28;20033;-62
2021/06/19 10:30:11;;;;;;;5.75;3.45;;;19.50;99.90;;;;;;5029685;28;20049;-62
2021/06/19 10:32:50;;;;;;;7.45;4.25;;;19.50;99.90;;;;;;5037243;28;20014;-62
2021/06/19 10:35:21;;;;;;;4.10;3.70;;;19.60;99.90;;;;;;5036849;28;20021;-62
2021/06/19 10:37:49;;;;;;;5.60;3.83;;;19.80;99.90;;;;;;5036993;28;20044;-62
2021/06/19 10:40:26;;;;;;;3.75;3.38;;;19.80;99.90;;;;;;5036733;28;20371;-62
2021/06/19 10:43:18;;;;;;;3.42;3.13;;;19.90;99.90;;;;;;5035987;28;20049;-62
2021/06/19 10:45:46;;;;;;;6.60;4.72;;;19.90;99.90;;;;;;5036758;28;20056;-62
2021/06/19 10:48:13;;;;;;;5.97;4.60;;;20.00;99.90;;;;;;5036770;28;20052;-62
2021/06/19 10:50:41;;;;;;;5.78;4.25;;;20.00;99.90;;;;;;5036792;28;20034;-62
2021/06/19 10:53:12;;;;;;;5.15;3.85;;;19.90;99.90;;;;;;5035451;28;20025;-62
2021/06/19 10:55:43;;;;;;;4.85;3.55;;;19.80;99.90;;;;;;5036823;28;20063;-62
2021/06/19 10:58:33;;;;;;;6.40;3.78;;;19.70;99.90;;;;;;5036604;28;20021;-62
2021/06/19 11:01:01;;;;;;;4.15;3.75;;;19.80;99.90;;;;;;5036746;28;20040;-62
2021/06/19 11:03:38;;;;;;;6.32;4.82;;;19.80;99.90;;;;;;5036768;28;20022;-62
2021/06/19 11:06:28;;;;;;;4.22;3.83;;;19.70;99.90;;;;;;5036503;28;20055;-62
2021/06/19 11:09:05;;;;;;;7.70;4.72;;;19.60;99.90;;;;;;5028983;28;20038;-62
2021/06/19 11:12:25;;;;;;;5.55;5.03;;;19.70;99.90;;;;;;5036467;28;20553;-62
2021/06/19 11:15:08;;;;;;;8.23;6.05;;;19.60;99.90;;;;;;4975540;28;20062;-62
2021/06/19 11:17:33;;;;;;;7.75;4.88;;;19.60;99.90;;;;;;4975515;28;20606;-62
2021/06/19 11:20:05;;;;;;;6.20;5.57;;;19.50;99.90;;;;;;5017781;28;20448;-62
2021/06/19 11:22:39;;;;;;;8.75;6.30;;;19.40;99.90;;;;;;5036073;28;20022;-62
2021/06/19 11:25:21;;;;;;;8.30;6.68;;;19.20;99.90;;;;;;5036694;28;20041;-62
2021/06/19 11:27:52;;;;;;;12.65;8.13;;;19.20;99.90;;;;;;5036440;28;20041;-62
2021/06/19 11:30:36;;;;;;;9.32;6.85;;;19.20;99.90;;;;;;5036098;28;20116;-61
2021/06/19 11:33:20;;;;;;;6.35;5.57;;;19.10;99.90;;;;;;5036526;28;20049;-61
2021/06/19 11:36:12;;;;;;;7.85;6.53;;;19.00;99.90;;;;;;5024341;28;20279;-62
2021/06/19 11:39:09;;;;;;;8.75;7.40;;;19.00;99.90;;;;;;5013781;28;20472;-61
2021/06/19 11:41:38;;;;;;;8.25;5.90;;;18.90;99.90;;;;;;5008403;28;20061;-61
2021/06/19 11:44:14;;;;;;;9.07;7.13;;;18.80;99.90;;;;;;5016835;28;20054;-62
2021/06/19 11:46:47;;;;;;;8.43;6.00;;;18.70;99.90;;;;;;5016438;28;20398;-62
2021/06/19 11:49:13;;;;;;;9.30;7.45;;;18.70;99.90;;;;;;5016487;28;20065;-62
2021/06/19 11:51:39;;;;;;;7.32;6.00;;;18.60;99.90;;;;;;5016183;28;20498;-62
2021/06/19 11:54:06;;;;;;;7.15;5.55;;;18.40;99.90;;;;;;5016917;28;20513;-62
2021/06/19 11:56:32;;;;;;;7.43;5.45;;;18.40;99.90;;;;;;5019953;28;20035;-61
2021/06/19 11:59:01;;;;;;;6.80;6.07;;;18.40;99.90;;;;;;5019815;28;20030;-62
2021/06/19 12:01:38;;;;;;;6.85;5.40;;;18.50;99.90;;;;;;5019742;28;20050;-61
2021/06/19 12:04:07;;;;;;;7.45;5.97;;;18.50;99.90;;;;;;5020215;28;20032;-61
2021/06/19 12:06:35;;;;;;;11.68;7.18;;;18.60;99.90;;;;;;5020049;28;20497;-61
2021/06/19 12:09:09;;;;;;;7.00;5.63;;;18.60;99.90;;;;;;5019603;28;20030;-61
2021/06/19 12:11:38;;;;;;;6.53;5.45;;;18.60;99.90;;;;;;5020129;28;20101;-62
2021/06/19 12:14:26;;;;;;;6.93;5.78;;;18.60;99.90;;;;;;5022712;28;20454;-61
2021/06/19 12:16:57;;;;;;;5.10;4.70;;;18.50;99.90;;;;;;5039270;28;20441;-62
2021/06/19 12:19:25;;;;;;;6.25;5.75;;;18.50;99.90;;;;;;5019496;28;20478;-61
2021/06/19 12:21:55;;;;;;;9.20;5.47;;;18.50;99.90;;;;;;5019187;28;20022;-61
2021/06/19 12:24:30;;;;;;;6.80;5.68;;;18.60;99.90;;;;;;5019524;28;20030;-62
2021/06/19 12:27:17;;;;;;;7.30;6.00;;;18.60;99.90;;;;;;5019306;28;20022;-62
2021/06/19 12:29:44;;;;;;;5.28;4.80;;;18.70;99.90;;;;;;5028100;28;20056;-61
2021/06/19 12:32:34;;;;;;;7.28;5.55;;;18.70;99.90;;;;;;5039260;28;20061;-61
2021/06/19 12:35:07;;;;;;;6.72;5.28;;;18.80;99.90;;;;;;5039602;28;20068;-61
2021/06/19 12:37:35;;;;;;;5.78;5.10;;;18.70;99.90;;;;;;5039432;28;20449;-61
2021/06/19 12:40:05;;;;;;;5.85;5.35;;;18.70;99.90;;;;;;5038898;28;20089;-62
2021/06/19 12:42:43;;;;;;;6.93;4.93;;;18.80;99.90;;;;;;5039075;28;20028;-61
2021/06/19 12:45:15;;;;;;;4.47;4.07;;;18.80;99.90;;;;;;5038864;28;20072;-62
2021/06/19 12:47:46;;;;;;;4.28;3.92;;;18.80;99.90;;;;;;5038855;28;20064;-62
2021/06/19 12:50:33;;;;;;;3.72;3.40;;;18.90;99.90;;;;;;5038710;28;20021;-62
2021/06/19 12:53:08;;;;;;;3.80;3.50;;;19.10;99.90;;;;;;5038687;28;20052;-61
2021/06/19 12:55:42;;;;;;;4.38;3.15;;;19.20;99.90;;;;;;5038877;28;20048;-61
2021/06/19 12:58:17;;;;;;;6.05;3.90;;;19.40;99.90;;;;;;5038330;28;20040;-62